Details From LXGB - Gibraltar
To LPMA - Madeira
Flight Number -
Tags decoded
Created
Modified
Stats Distance 655 nm / 1,213 km
Max Altitude 0 ft / 0 m
Waypoints 8
Social Downloads 0
Likes 0
Share VATSIM

Download

Looking for another format? Having issues loading an existing format? Contact us
Advertisement - Login to hide

Notes

Requested: LXGB BARPA UB28 TNG UA621 BAMBA UN726 ORTOP NARTA LIDRO LPMA

Route

LXGB BARPA UB28 TNG UA621 BAMBA ORTOP NARTA LIDRO LPMA

ID Type Via Altitude Latitude Longitude Leg Dist Tot Dist Heading (true) Name
O LXGB APT - 0 ft / 0 m 36.15121˚ -5.34966˚ - 0 nm - Gibraltar
BARPA FIX - 0 ft / 0 m 35.83333˚ -5.66667˚ 24 nm 24 nm 219° / 219° -
TNG VOR UB28 (AWY-HI) 0 ft / 0 m 35.72889˚ -5.89083˚ 12 nm 37 nm 240° / 240° TANGER VOR-DME
BAMBA FIX UA621 (AWY-HI) 0 ft / 0 m 35.83333˚ -6.45083˚ 27 nm 65 nm 283° / 283° -
ORTOP FIX - 0 ft / 0 m 36.02666˚ -7.38333˚ 46 nm 111 nm 285° / 284° -
NARTA FIX - 0 ft / 0 m 36.05639˚ -12.55806˚ 251 nm 363 nm 272° / 269° -
LIDRO FIX - 0 ft / 0 m 33.66750˚ -15.94972˚ 220 nm 583 nm 230° / 228° -
O LPMA APT - 0 ft / 0 m 32.69770˚ -16.77445˚ 71 nm 654 nm 216° / 215° Madeira

Altitude Profile

Advertisement - Login to hide

Weather


0- 5 10 15 20 25 30 35+ Temperature / ° C

Clouds and Precipitation
Forecast for 2017-12-18 06:00 UTC. Updated 39 minutes ago

Ground ~20,000 ft ~40,000 ft Winds

LXGB

Details ICAO LXGB (GIB)
Name Gibraltar
Region Gibralter
Timezone Europe/Gibraltar (UTC+1.0)
Stats Elevation 15 ft / 5 m (AMSL)
Location 36.151209° -5.349664°
Runways 1
Magnetic Variation 1.122° W

METAR

LXGB 180050Z AUTO 09021KT 9999 // SCT034/// SCT050/// 14/07 Q1030

Decode

TAF

Not found

Departure Runways

ID Width Length Bearing (true) Bearing (mag) Surface Threshold Offset Overrun Length
27 151 ft / 46 m 5,992 ft / 1,826 m 267.56° 268.68° Asphalt 367 ft / 112 m 89 ft / 27 m
9 151 ft / 46 m 5,992 ft / 1,826 m 87.54° 88.66° Asphalt 299 ft / 91 m 52 ft / 16 m

LPMA

Details ICAO LPMA (FNC)
Name Madeira
Region Portugal
Timezone Atlantic/Madeira (UTC+0.0)
Stats Elevation 192 ft / 59 m (AMSL)
Location 32.697704° -16.774449°
Runways 1
Magnetic Variation 4.981° W

METAR

LPMA 180130Z 02013KT 9999 BKN015 17/09 Q1029

Decode

TAF

TAF LPMA 172300Z 1800/1824 02013KT 9999 SCT015 SCT030 TEMPO 1800/1812 BKN015

Decode

Destination Runways

ID Width Length Bearing (true) Bearing (mag) Surface Threshold Offset Overrun Length
05 141 ft / 43 m 8,683 ft / 2,647 m 42.98° 47.96° Asphalt 472 ft / 144 m 0 ft / 0 m
23 141 ft / 43 m 8,683 ft / 2,647 m 222.99° 227.97° Asphalt 466 ft / 142 m 0 ft / 0 m

Popular Alternatives